Wing, Alabama
Current Conditions -  °F | °C
As of 12:58 AM on Saturday 25 Oct 2014 (Local Time) from K0J4 Reporting Station
Clear Clear  
Wind Chill: 13°   Ceiling: Unl
Heat Index: 13°   Visibility: 10mi
Dew Point:   Wind: 3mph
Humidity: 72%   Direction: 340°NNW
Pressure: 30.06"   Gusts: NA
Location:  31.03°N, 86.61°W
Report Text: K0J4 250558Z AUTO 34003KT 10SM CLR 13/08 A3006 RMK AO2 SLP177 T01280078 10150 20094 55003 $
Loading
Personal Weather Stations






























Interactive Weather Map
Tropical Storm Tracking
New forecast layout! Learn more

10-Day Weather Forecast

Advertisements
Track Severe Weather on mobile